Time;durP1;ratioP1;P1;durP2;ratioP2;P2;SDS_P1;SDS_P2;PMS_P1;PMS_P2;Temp;Humidity;BMP_temperature;BMP_pressure;BME280_temperature;BME280_humidity;BME280_pressure;Samples;Min_cycle;Max_cycle;Signal;HPM_P1;HPM_P2
2023/08/12 00:00:54;;;;;;;8.30;5.40;;;12.50;1.00;;;;;;8307734;28;20275;-62
2023/08/12 00:04:54;;;;;;;5.87;5.37;;;12.40;99.90;;;;;;8312579;28;20253;-64
2023/08/12 00:08:55;;;;;;;6.30;5.07;;;12.40;1.00;;;;;;8323412;28;20264;-62
2023/08/12 00:12:56;;;;;;;5.83;5.23;;;12.40;99.90;;;;;;8316557;28;20224;-62
2023/08/12 00:16:57;;;;;;;6.63;4.83;;;12.40;1.00;;;;;;8315798;28;20214;-64
2023/08/12 00:20:58;;;;;;;6.87;5.60;;;12.40;26.10;;;;;;8322084;28;20220;-62
2023/08/12 00:24:58;;;;;;;6.93;5.50;;;12.40;99.90;;;;;;8317488;28;20221;-62
2023/08/12 00:28:59;;;;;;;8.03;5.87;;;12.30;99.90;;;;;;8318105;28;20194;-62
2023/08/12 00:33:00;;;;;;;9.00;6.13;;;12.30;99.90;;;;;;8317666;28;20222;-64
2023/08/12 00:37:00;;;;;;;11.17;6.23;;;12.30;1.00;;;;;;8318132;28;20217;-62
2023/08/12 00:41:03;;;;;;;7.60;6.37;;;12.30;99.90;;;;;;8314287;28;20236;-61
2023/08/12 00:45:12;;;;;;;7.10;6.27;;;12.30;99.90;;;;;;8320248;28;20327;-62
2023/08/12 00:49:14;;;;;;;5.87;5.37;;;12.30;99.90;;;;;;8313799;28;20233;-71
2023/08/12 00:53:16;;;;;;;6.27;5.67;;;12.20;99.90;;;;;;8314717;28;20222;-66
2023/08/12 00:57:17;;;;;;;6.50;5.90;;;12.20;99.90;;;;;;8326857;28;20193;-68
2023/08/12 01:01:18;;;;;;;6.33;5.43;;;12.10;99.90;;;;;;8312127;28;20191;-68
2023/08/12 01:05:20;;;;;;;6.73;6.07;;;12.10;99.90;;;;;;8312213;28;20240;-68
2023/08/12 01:09:20;;;;;;;6.93;6.23;;;12.10;99.90;;;;;;8316583;28;20209;-66
2023/08/12 01:13:44;;;;;;;6.27;5.67;;;12.10;99.90;;;;;;8316885;28;20189;-67
2023/08/12 01:17:47;;;;;;;7.90;5.80;;;12.00;99.90;;;;;;8316215;28;20196;-70
2023/08/12 01:21:52;;;;;;;5.83;5.33;;;11.90;99.90;;;;;;8312701;28;20219;-64
2023/08/12 01:25:53;;;;;;;6.77;5.50;;;11.90;99.90;;;;;;8316985;28;20221;-69
2023/08/12 01:29:54;;;;;;;6.23;5.50;;;11.80;99.90;;;;;;8307824;28;20201;-67
2023/08/12 01:34:16;;;;;;;5.50;5.00;;;11.70;99.90;;;;;;8314383;28;20223;-71
2023/08/12 01:38:18;;;;;;;5.37;4.77;;;11.60;99.90;;;;;;8313217;28;20617;-68
2023/08/12 01:42:19;;;;;;;7.30;5.33;;;11.60;99.90;;;;;;8315079;28;20227;-68
2023/08/12 01:46:22;;;;;;;6.00;5.30;;;11.50;99.90;;;;;;8315881;28;20393;-67
2023/08/12 01:50:22;;;;;;;6.13;5.53;;;11.50;99.90;;;;;;8315719;28;20304;-66
2023/08/12 01:54:23;;;;;;;7.63;6.00;;;11.50;99.90;;;;;;8314892;28;20188;-68
2023/08/12 01:58:26;;;;;;;6.37;5.77;;;11.40;99.90;;;;;;8313647;28;20305;-70
2023/08/12 02:02:26;;;;;;;6.70;6.03;;;11.50;99.90;;;;;;8309646;28;20210;-68
2023/08/12 02:06:27;;;;;;;6.87;5.90;;;11.50;99.90;;;;;;8316091;28;20233;-68
2023/08/12 02:10:28;;;;;;;6.67;5.57;;;11.50;99.90;;;;;;8315874;28;20686;-70
2023/08/12 02:14:29;;;;;;;6.07;5.17;;;11.40;99.90;;;;;;8318501;28;20295;-70
2023/08/12 02:18:29;;;;;;;7.73;5.87;;;11.40;99.90;;;;;;8314162;28;20186;-68
2023/08/12 02:22:30;;;;;;;6.07;5.33;;;11.40;99.90;;;;;;8317781;28;20303;-71
2023/08/12 02:26:31;;;;;;;9.13;5.10;;;11.30;99.90;;;;;;8308988;28;20218;-68
2023/08/12 02:30:33;;;;;;;7.33;6.13;;;11.30;99.90;;;;;;8315051;28;20184;-67
2023/08/12 02:34:34;;;;;;;8.47;6.07;;;11.20;99.90;;;;;;8317738;28;20203;-70
2023/08/12 02:38:35;;;;;;;7.53;6.67;;;11.20;99.90;;;;;;8315320;28;20225;-68
2023/08/12 02:42:35;;;;;;;7.00;5.70;;;11.30;99.90;;;;;;8311946;28;20211;-70
2023/08/12 02:46:36;;;;;;;6.33;5.23;;;11.30;99.90;;;;;;8306460;28;20238;-71
2023/08/12 02:50:37;;;;;;;6.97;5.73;;;11.30;99.90;;;;;;8314469;28;20185;-67
2023/08/12 02:54:38;;;;;;;6.20;5.30;;;11.20;99.90;;;;;;8320812;28;20440;-69
2023/08/12 02:58:39;;;;;;;5.73;5.23;;;11.20;99.90;;;;;;8322292;28;20208;-67
2023/08/12 03:02:42;;;;;;;5.90;5.30;;;11.20;99.90;;;;;;8325209;28;20228;-67
2023/08/12 03:06:43;;;;;;;6.77;5.17;;;11.10;99.90;;;;;;8320898;28;20267;-70
2023/08/12 03:10:45;;;;;;;5.27;4.73;;;11.10;99.90;;;;;;8326148;28;20226;-64
2023/08/12 03:14:45;;;;;;;5.83;5.33;;;11.10;99.90;;;;;;8325731;28;20230;-63
2023/08/12 03:18:46;;;;;;;6.03;5.20;;;11.10;99.90;;;;;;8320428;28;20407;-61
2023/08/12 03:22:47;;;;;;;6.90;6.20;;;11.10;99.90;;;;;;8321424;28;20248;-63
2023/08/12 03:26:47;;;;;;;5.90;5.30;;;11.10;99.90;;;;;;8322519;28;20200;-61
2023/08/12 03:30:52;;;;;;;6.03;5.43;;;11.10;99.90;;;;;;8325383;28;20201;-62
2023/08/12 03:34:53;;;;;;;6.73;5.70;;;11.10;99.90;;;;;;8325425;28;20199;-61
2023/08/12 03:38:54;;;;;;;6.10;5.50;;;11.10;99.90;;;;;;8321172;28;20186;-63
2023/08/12 03:42:55;;;;;;;7.13;6.33;;;11.20;99.90;;;;;;8323119;28;20214;-62
2023/08/12 03:46:55;;;;;;;8.57;5.77;;;11.20;99.90;;;;;;8325832;28;20437;-64
2023/08/12 03:50:56;;;;;;;6.97;6.23;;;11.20;99.90;;;;;;8326099;28;20282;-61
2023/08/12 03:54:57;;;;;;;7.97;7.17;;;11.30;99.90;;;;;;8328875;28;20193;-63
2023/08/12 03:58:58;;;;;;;7.13;5.93;;;11.30;99.90;;;;;;8324701;28;20545;-64
2023/08/12 04:02:58;;;;;;;7.37;6.43;;;11.40;99.90;;;;;;8326773;28;20341;-63
2023/08/12 04:07:00;;;;;;;10.83;7.03;;;11.60;99.90;;;;;;8324845;28;20213;-62
2023/08/12 04:11:03;;;;;;;11.07;7.83;;;11.70;99.90;;;;;;8317877;28;20263;-62
2023/08/12 04:15:05;;;;;;;9.30;7.97;;;11.90;99.90;;;;;;8317215;28;20186;-64
2023/08/12 04:19:06;;;;;;;9.93;7.67;;;12.20;99.90;;;;;;8318106;28;20330;-64
2023/08/12 04:23:07;;;;;;;11.07;8.90;;;12.50;99.90;;;;;;8325369;28;20209;-61
2023/08/12 04:27:07;;;;;;;11.10;8.50;;;12.80;99.90;;;;;;8315078;28;20360;-64
2023/08/12 04:31:08;;;;;;;9.77;8.87;;;13.20;99.90;;;;;;8319387;28;20236;-65
2023/08/12 04:35:09;;;;;;;13.57;9.77;;;13.50;99.90;;;;;;8320598;28;20201;-67
2023/08/12 04:39:11;;;;;;;13.27;9.07;;;13.80;99.90;;;;;;8316270;28;20205;-62
2023/08/12 04:43:13;;;;;;;20.90;19.00;;;14.20;99.90;;;;;;8320345;28;20844;-61
2023/08/12 04:47:14;;;;;;;11.93;10.17;;;14.50;99.90;;;;;;8311098;28;20201;-64
2023/08/12 04:51:15;;;;;;;24.50;12.00;;;15.00;99.90;;;;;;8324836;28;20210;-62
2023/08/12 04:55:16;;;;;;;14.93;7.80;;;15.50;99.90;;;;;;8314112;28;20186;-63
2023/08/12 04:59:18;;;;;;;11.07;8.87;;;15.70;99.90;;;;;;8317764;28;20194;-63
2023/08/12 05:03:18;;;;;;;13.47;8.83;;;15.80;99.90;;;;;;8319962;28;20214;-63
2023/08/12 05:07:19;;;;;;;19.87;10.57;;;15.90;99.90;;;;;;8318967;28;20188;-63
2023/08/12 05:11:20;;;;;;;11.83;7.07;;;16.10;99.90;;;;;;8322353;28;20239;-63
2023/08/12 05:15:21;;;;;;;22.40;16.97;;;16.40;99.90;;;;;;8311283;28;20278;-62
2023/08/12 05:19:22;;;;;;;14.80;12.67;;;16.60;99.90;;;;;;8322902;28;20190;-61
2023/08/12 05:23:22;;;;;;;11.33;9.67;;;17.00;99.90;;;;;;8313489;28;20429;-64
2023/08/12 05:27:23;;;;;;;23.87;16.40;;;17.30;99.90;;;;;;8312424;28;20185;-63
2023/08/12 05:31:24;;;;;;;10.33;6.80;;;17.50;50.70;;;;;;8313897;28;20293;-65
2023/08/12 05:35:25;;;;;;;10.27;6.87;;;17.70;1.00;;;;;;8317217;28;20272;-65
2023/08/12 05:39:25;;;;;;;9.43;7.77;;;17.70;1.00;;;;;;8318330;28;20218;-62
2023/08/12 05:43:26;;;;;;;9.73;6.57;;;17.70;1.00;;;;;;8313866;28;20216;-62
2023/08/12 05:47:27;;;;;;;7.63;5.83;;;17.80;1.00;;;;;;8313839;28;20201;-63
2023/08/12 05:51:28;;;;;;;8.83;5.83;;;18.00;1.00;;;;;;8314477;28;20188;-66
2023/08/12 05:55:29;;;;;;;8.50;5.77;;;18.20;1.00;;;;;;8313988;28;20227;-65
2023/08/12 05:59:29;;;;;;;8.53;4.83;;;18.50;1.00;;;;;;8317089;28;20187;-65
2023/08/12 06:03:30;;;;;;;11.00;6.30;;;18.80;1.00;;;;;;8314307;28;20213;-62
2023/08/12 06:07:31;;;;;;;9.63;6.60;;;19.10;1.00;;;;;;8304606;28;20202;-65
2023/08/12 06:11:32;;;;;;;10.93;9.30;;;19.40;1.00;;;;;;8311438;28;20226;-63
2023/08/12 06:15:33;;;;;;;14.90;9.57;;;19.70;1.00;;;;;;8307462;28;20213;-62
2023/08/12 06:19:33;;;;;;;13.00;7.17;;;19.90;1.00;;;;;;8314873;28;20174;-62
2023/08/12 06:23:34;;;;;;;11.10;7.73;;;20.30;1.00;;;;;;8317847;28;20228;-64
2023/08/12 06:27:35;;;;;;;8.17;5.60;;;20.70;1.00;;;;;;8318775;28;20455;-64
2023/08/12 06:31:35;;;;;;;10.57;5.67;;;20.90;1.00;;;;;;8324615;28;20182;-63
2023/08/12 06:35:36;;;;;;;5.73;4.03;;;21.20;1.00;;;;;;8319659;28;20375;-64
2023/08/12 06:39:37;;;;;;;8.60;4.93;;;21.20;1.00;;;;;;8319828;28;20244;-64
2023/08/12 06:43:38;;;;;;;10.77;5.37;;;21.50;1.00;;;;;;8306713;28;20209;-61
2023/08/12 06:47:39;;;;;;;11.30;6.30;;;21.60;1.00;;;;;;8316733;28;20190;-63
2023/08/12 06:51:39;;;;;;;12.20;5.37;;;21.90;1.00;;;;;;8319391;28;20190;-64
2023/08/12 06:55:45;;;;;;;17.53;10.87;;;22.10;1.00;;;;;;8315081;28;20194;-64
2023/08/12 06:59:46;;;;;;;5.90;3.90;;;22.30;1.00;;;;;;8319034;28;20197;-62
2023/08/12 07:03:47;;;;;;;10.43;6.00;;;22.40;1.00;;;;;;8315224;28;20214;-66
2023/08/12 07:07:47;;;;;;;7.77;4.17;;;22.70;1.00;;;;;;8319921;28;20185;-65
2023/08/12 07:11:48;;;;;;;7.03;3.60;;;23.00;1.00;;;;;;8321787;28;20290;-65
2023/08/12 07:15:48;;;;;;;9.57;6.23;;;23.10;1.00;;;;;;8323043;28;20197;-63
2023/08/12 07:19:49;;;;;;;8.17;4.57;;;23.30;1.00;;;;;;8315033;28;20209;-62
2023/08/12 07:23:50;;;;;;;14.57;5.10;;;23.40;1.00;;;;;;8320725;28;20210;-63
2023/08/12 07:27:51;;;;;;;10.00;4.83;;;23.40;1.00;;;;;;8322656;28;20185;-65
2023/08/12 07:31:52;;;;;;;5.20;3.30;;;23.50;1.00;;;;;;8323879;28;20243;-65
2023/08/12 07:35:53;;;;;;;9.93;5.33;;;23.70;1.00;;;;;;8321239;28;20186;-63
2023/08/12 07:39:54;;;;;;;12.97;8.40;;;23.90;1.00;;;;;;8318124;28;20182;-62
2023/08/12 07:43:54;;;;;;;12.27;7.40;;;24.00;1.00;;;;;;8322967;28;20216;-61
2023/08/12 07:47:55;;;;;;;33.43;6.10;;;24.20;1.00;;;;;;8315222;28;20297;-67
2023/08/12 07:51:56;;;;;;;24.85;5.40;;;24.30;99.90;;;;;;8321814;28;20182;-67
2023/08/12 07:55:57;;;;;;;9.50;3.45;;;24.50;99.90;;;;;;8324848;28;20182;-67
2023/08/12 07:59:58;;;;;;;11.85;4.25;;;24.70;99.90;;;;;;8318689;28;20656;-67
2023/08/12 08:03:58;;;;;;;12.35;3.08;;;25.00;99.90;;;;;;8319473;28;20255;-66
2023/08/12 08:08:02;;;;;;;6.30;2.90;;;25.20;99.90;;;;;;8318783;28;20193;-67
2023/08/12 08:12:04;;;;;;;8.88;3.33;;;25.40;99.90;;;;;;8325588;28;20228;-67
2023/08/12 08:16:05;;;;;;;8.63;3.75;;;25.50;99.90;;;;;;8317225;28;20595;-68
2023/08/12 08:20:07;;;;;;;4.55;2.88;;;25.80;99.90;;;;;;8320076;28;20185;-68
2023/08/12 08:24:11;;;;;;;8.10;3.92;;;26.00;99.90;;;;;;8326071;28;20233;-68
2023/08/12 08:28:11;;;;;;;5.78;3.30;;;26.30;99.90;;;;;;8317817;28;20183;-70
2023/08/12 08:32:12;;;;;;;5.95;3.95;;;26.70;99.90;;;;;;8320663;28;20190;-70
2023/08/12 08:36:13;;;;;;;5.03;4.07;;;26.90;99.90;;;;;;8321876;28;20387;-68
2023/08/12 08:40:14;;;;;;;5.60;3.33;;;27.10;99.90;;;;;;8325363;28;20269;-68
2023/08/12 08:44:17;;;;;;;5.03;3.70;;;27.20;99.90;;;;;;8342831;28;20214;-70
2023/08/12 08:48:22;;;;;;;7.05;3.70;;;27.40;99.90;;;;;;8323861;28;20188;-67
2023/08/12 08:52:23;;;;;;;4.00;2.75;;;27.40;99.90;;;;;;8328731;28;20185;-70
2023/08/12 08:56:24;;;;;;;4.70;3.08;;;27.50;99.90;;;;;;8323716;28;20190;-69
2023/08/12 09:00:27;;;;;;;5.85;2.80;;;27.50;99.90;;;;;;8324687;28;20183;-68
2023/08/12 09:04:29;;;;;;;3.78;2.67;;;27.50;99.90;;;;;;8329054;28;20232;-67
2023/08/12 09:08:32;;;;;;;4.10;2.85;;;27.40;99.90;;;;;;8321515;28;20210;-68
2023/08/12 09:12:33;;;;;;;5.72;2.80;;;27.50;99.90;;;;;;8320467;28;20197;-65
2023/08/12 09:16:34;;;;;;;8.98;4.88;;;27.70;99.90;;;;;;8326542;28;20210;-67
2023/08/12 09:20:35;;;;;;;5.72;2.78;;;27.70;99.90;;;;;;8327798;28;20187;-65
2023/08/12 09:24:35;;;;;;;3.70;2.20;;;27.90;99.90;;;;;;8321058;28;20458;-66
2023/08/12 09:28:36;;;;;;;4.47;2.47;;;27.90;99.90;;;;;;8322974;28;20202;-64
2023/08/12 09:32:38;;;;;;;3.85;2.30;;;28.00;99.90;;;;;;8320487;28;20201;-67
2023/08/12 09:36:39;;;;;;;2.45;2.10;;;28.10;99.90;;;;;;8307219;28;20290;-67
2023/08/12 09:40:40;;;;;;;4.95;2.20;;;28.10;99.90;;;;;;8312134;28;20205;-65
2023/08/12 09:44:42;;;;;;;3.28;2.20;;;28.20;99.90;;;;;;8316013;28;20247;-67
2023/08/12 09:48:43;;;;;;;4.40;2.35;;;28.20;99.90;;;;;;8331112;28;20193;-67
2023/08/12 09:52:45;;;;;;;3.42;2.30;;;28.10;99.90;;;;;;8326802;28;20288;-66
2023/08/12 09:56:52;;;;;;;4.68;2.13;;;28.10;99.90;;;;;;8328047;28;20194;-66
2023/08/12 10:00:54;;;;;;;11.57;3.10;;;28.20;99.90;;;;;;8321085;28;20225;-63
2023/08/12 10:04:58;;;;;;;6.50;2.03;;;28.30;99.90;;;;;;8323198;28;20249;-63
2023/08/12 10:08:59;;;;;;;7.32;3.15;;;28.50;99.90;;;;;;8318962;28;20213;-67
2023/08/12 10:13:00;;;;;;;4.90;2.15;;;28.50;99.90;;;;;;8310584;28;21484;-65
2023/08/12 10:17:02;;;;;;;3.90;1.92;;;28.40;99.90;;;;;;8322002;28;20219;-63
2023/08/12 10:21:04;;;;;;;2.90;2.10;;;28.40;99.90;;;;;;8322137;28;21127;-64
2023/08/12 10:25:07;;;;;;;4.35;2.50;;;28.50;99.90;;;;;;8309966;28;20209;-68
2023/08/12 10:29:09;;;;;;;5.45;1.88;;;28.70;99.90;;;;;;8320138;28;20185;-66
2023/08/12 10:33:10;;;;;;;3.33;1.50;;;28.90;99.90;;;;;;8314522;28;20242;-65
2023/08/12 10:37:11;;;;;;;2.17;1.42;;;29.00;99.90;;;;;;8321781;28;20193;-65
2023/08/12 10:41:23;;;;;;;2.30;1.73;;;29.30;99.90;;;;;;8321052;28;20506;-67
2023/08/12 10:45:46;;;;;;;2.88;1.95;;;29.50;99.90;;;;;;8324519;28;20269;-67
2023/08/12 10:49:52;;;;;;;2.95;2.10;;;29.60;99.90;;;;;;8324616;28;20186;-67
2023/08/12 10:54:14;;;;;;;2.22;1.65;;;29.70;99.90;;;;;;8324645;28;20187;-64
2023/08/12 10:58:28;;;;;;;3.30;1.70;;;29.80;99.90;;;;;;8315935;28;20192;-66
2023/08/12 11:02:36;;;;;;;2.08;1.40;;;29.90;99.90;;;;;;8321715;28;20213;-66
2023/08/12 11:06:45;;;;;;;2.80;1.77;;;29.90;99.90;;;;;;8316868;28;20208;-70
2023/08/12 11:10:47;;;;;;;2.60;1.80;;;30.00;99.90;;;;;;8315812;28;20273;-67
2023/08/12 11:14:59;;;;;;;3.10;1.50;;;30.20;99.90;;;;;;8322615;28;20284;-68
2023/08/12 11:18:59;;;;;;;1.70;1.20;;;30.20;99.90;;;;;;8322703;28;20185;-66
2023/08/12 11:23:03;;;;;;;2.28;1.70;;;30.10;99.90;;;;;;8317988;28;20209;-68
2023/08/12 11:27:04;;;;;;;4.28;1.70;;;30.10;99.90;;;;;;8314383;28;20190;-67
2023/08/12 11:31:04;;;;;;;2.47;1.85;;;30.10;99.90;;;;;;8306402;28;20193;-67
2023/08/12 11:35:08;;;;;;;1.92;1.42;;;30.30;99.90;;;;;;8315557;28;21127;-65
2023/08/12 11:39:09;;;;;;;2.65;1.50;;;30.40;99.90;;;;;;8315459;28;20187;-66
2023/08/12 11:43:10;;;;;;;2.40;1.20;;;30.20;99.90;;;;;;8317048;28;20844;-67
2023/08/12 11:47:11;;;;;;;4.00;1.38;;;30.00;99.90;;;;;;8323664;28;20246;-65
2023/08/12 11:51:13;;;;;;;1.95;1.13;;;30.20;99.90;;;;;;8316113;28;20189;-67
2023/08/12 11:55:15;;;;;;;2.90;1.17;;;30.30;99.90;;;;;;8324008;28;20186;-67
2023/08/12 11:59:16;;;;;;;1.63;1.50;;;30.20;99.90;;;;;;8323533;28;20190;-64
2023/08/12 12:03:17;;;;;;;3.05;1.42;;;30.30;99.90;;;;;;8319215;28;20661;-66
2023/08/12 12:07:25;;;;;;;3.70;1.50;;;30.60;99.90;;;;;;8321504;28;20256;-66
2023/08/12 12:11:26;;;;;;;2.30;1.50;;;30.80;99.90;;;;;;8331609;28;20636;-65
2023/08/12 12:15:27;;;;;;;2.03;1.40;;;30.80;99.90;;;;;;8322120;28;20251;-67
2023/08/12 12:19:27;;;;;;;2.78;1.77;;;31.00;99.90;;;;;;8315818;28;20186;-69
2023/08/12 12:23:29;;;;;;;4.57;1.75;;;31.10;99.90;;;;;;8320853;28;20312;-68
2023/08/12 12:27:31;;;;;;;3.08;1.30;;;31.00;99.90;;;;;;8317013;28;20182;-68
2023/08/12 12:31:36;;;;;;;1.60;1.30;;;30.70;99.90;;;;;;8314629;28;20282;-67
2023/08/12 12:35:36;;;;;;;1.55;1.20;;;30.80;99.90;;;;;;8315180;28;20273;-67
2023/08/12 12:39:37;;;;;;;1.77;1.52;;;31.00;99.90;;;;;;8322365;28;20712;-68
2023/08/12 12:43:38;;;;;;;1.63;1.50;;;31.10;99.90;;;;;;8319460;28;20301;-67
2023/08/12 12:47:39;;;;;;;1.58;1.17;;;31.20;99.90;;;;;;8307448;28;20182;-67
2023/08/12 12:51:40;;;;;;;1.90;1.20;;;31.20;99.90;;;;;;8317591;28;20250;-68
2023/08/12 12:55:40;;;;;;;3.40;1.40;;;31.30;99.90;;;;;;8317444;28;20308;-68
2023/08/12 12:59:41;;;;;;;2.22;1.20;;;31.40;99.90;;;;;;8315495;28;20201;-67
2023/08/12 13:03:42;;;;;;;2.55;1.35;;;31.40;99.90;;;;;;8315686;28;20207;-66
2023/08/12 13:07:43;;;;;;;2.42;1.42;;;31.50;99.90;;;;;;8332540;28;20193;-68
2023/08/12 13:11:44;;;;;;;5.18;1.60;;;31.20;99.90;;;;;;8321101;28;20214;-68
2023/08/12 13:15:45;;;;;;;2.95;1.25;;;31.30;99.90;;;;;;8334493;28;20185;-67
2023/08/12 13:19:46;;;;;;;1.30;1.20;;;31.40;99.90;;;;;;8330295;28;20221;-66
2023/08/12 13:23:47;;;;;;;2.85;1.50;;;31.40;99.90;;;;;;8320572;28;20216;-67
2023/08/12 13:27:48;;;;;;;3.22;1.35;;;31.50;99.90;;;;;;8317168;28;20471;-65
2023/08/12 13:31:48;;;;;;;2.80;1.42;;;31.70;99.90;;;;;;8321510;28;20194;-65
2023/08/12 13:35:49;;;;;;;2.17;1.45;;;31.80;99.90;;;;;;8316388;28;20181;-66
2023/08/12 13:39:50;;;;;;;2.60;1.38;;;31.70;99.90;;;;;;8308774;28;20212;-68
2023/08/12 13:43:51;;;;;;;1.98;1.38;;;31.80;99.90;;;;;;8309741;28;20237;-67
2023/08/12 13:47:52;;;;;;;4.57;1.60;;;32.30;99.90;;;;;;8311347;28;20297;-65
2023/08/12 13:51:53;;;;;;;2.22;1.45;;;32.70;99.90;;;;;;8309259;28;20304;-65
2023/08/12 13:55:53;;;;;;;4.50;2.10;;;33.10;99.90;;;;;;8321770;28;20182;-67
2023/08/12 13:59:54;;;;;;;3.22;1.70;;;33.10;99.90;;;;;;8313030;28;20186;-67
2023/08/12 14:03:55;;;;;;;2.42;1.60;;;33.20;99.90;;;;;;8315082;28;20210;-64
2023/08/12 14:07:56;;;;;;;3.00;1.48;;;33.50;99.90;;;;;;8316240;28;20213;-67
2023/08/12 14:11:57;;;;;;;2.55;1.27;;;33.30;99.90;;;;;;8317627;28;20212;-65
2023/08/12 14:15:58;;;;;;;2.95;1.40;;;32.80;99.90;;;;;;8320993;28;20261;-67
2023/08/12 14:19:59;;;;;;;1.55;1.17;;;32.70;99.90;;;;;;8311802;28;20240;-67
2023/08/12 14:24:03;;;;;;;3.35;1.63;;;32.90;99.90;;;;;;8325017;28;20212;-66
2023/08/12 14:28:04;;;;;;;2.00;1.65;;;33.00;99.90;;;;;;8311017;28;20298;-64
2023/08/12 14:32:08;;;;;;;1.80;1.52;;;32.80;99.90;;;;;;8330483;28;20221;-68
2023/08/12 14:36:09;;;;;;;4.63;1.73;;;32.90;99.90;;;;;;8312145;28;20487;-67
2023/08/12 14:40:10;;;;;;;3.58;1.60;;;32.60;99.90;;;;;;8317890;28;20194;-68
2023/08/12 14:44:11;;;;;;;1.35;1.25;;;32.30;99.90;;;;;;8316164;28;20213;-69
2023/08/12 14:48:12;;;;;;;2.28;1.40;;;32.00;99.90;;;;;;8313102;28;20190;-68
2023/08/12 14:52:22;;;;;;;1.65;1.50;;;31.90;99.90;;;;;;8309386;28;20189;-68
2023/08/12 14:56:23;;;;;;;1.83;1.35;;;31.90;99.90;;;;;;8312093;28;20193;-68
2023/08/12 15:00:24;;;;;;;3.17;1.60;;;31.90;99.90;;;;;;8310920;28;20362;-68
2023/08/12 15:04:25;;;;;;;4.38;2.80;;;31.70;99.90;;;;;;8311982;28;20937;-67
2023/08/12 15:08:25;;;;;;;5.57;1.85;;;31.40;99.90;;;;;;8314441;28;20282;-67
2023/08/12 15:12:29;;;;;;;2.22;1.63;;;31.40;99.90;;;;;;8319646;28;20500;-67
2023/08/12 15:16:31;;;;;;;3.05;1.80;;;31.40;99.90;;;;;;8313892;28;20194;-67
2023/08/12 15:20:32;;;;;;;2.25;1.80;;;31.30;99.90;;;;;;8311083;28;20424;-67
2023/08/12 15:24:33;;;;;;;2.83;1.90;;;31.30;99.90;;;;;;8319237;28;20248;-68
2023/08/12 15:28:33;;;;;;;3.15;2.30;;;31.30;99.90;;;;;;8316943;28;20190;-67
2023/08/12 15:32:34;;;;;;;4.65;3.00;;;31.50;99.90;;;;;;8314985;28;20189;-67
2023/08/12 15:36:36;;;;;;;6.03;3.00;;;31.50;99.90;;;;;;8312107;28;20213;-68
2023/08/12 15:40:38;;;;;;;7.13;3.55;;;31.50;99.90;;;;;;8317514;28;20198;-65
2023/08/12 15:44:39;;;;;;;5.88;3.50;;;31.50;99.90;;;;;;8321717;28;20202;-65
2023/08/12 15:48:40;;;;;;;4.80;2.13;;;31.70;99.90;;;;;;8317370;28;20240;-65
2023/08/12 15:52:40;;;;;;;1.88;1.65;;;32.10;99.90;;;;;;8324082;28;20280;-66
2023/08/12 15:56:41;;;;;;;1.88;1.63;;;32.40;99.90;;;;;;8325667;28;20536;-66
2023/08/12 16:00:43;;;;;;;2.15;1.60;;;32.70;99.90;;;;;;8321795;28;20228;-65
2023/08/12 16:04:43;;;;;;;1.95;1.65;;;32.80;99.90;;;;;;8314053;28;20308;-65
2023/08/12 16:08:44;;;;;;;2.22;1.60;;;32.80;99.90;;;;;;8315463;28;20217;-66
2023/08/12 16:12:45;;;;;;;3.67;2.58;;;32.60;99.90;;;;;;8319277;28;20466;-67
2023/08/12 16:16:45;;;;;;;2.58;1.77;;;32.30;99.90;;;;;;8317573;28;20189;-65
2023/08/12 16:20:46;;;;;;;3.22;2.03;;;31.50;99.90;;;;;;8315781;28;20189;-64
2023/08/12 16:24:47;;;;;;;5.35;2.03;;;30.70;99.90;;;;;;8319890;28;20218;-65
2023/08/12 16:28:48;;;;;;;3.97;1.75;;;30.00;99.90;;;;;;8318244;28;20186;-66
2023/08/12 16:32:49;;;;;;;5.55;1.90;;;29.30;99.90;;;;;;8319400;28;20217;-65
2023/08/12 16:36:49;;;;;;;3.47;1.90;;;28.90;99.90;;;;;;8317615;28;20201;-64
2023/08/12 16:40:50;;;;;;;1.92;1.73;;;28.90;99.90;;;;;;8316802;28;20194;-65
2023/08/12 16:44:51;;;;;;;2.95;2.65;;;29.10;99.90;;;;;;8320840;28;20421;-65
2023/08/12 16:48:52;;;;;;;4.53;2.50;;;29.50;99.90;;;;;;8315333;28;20198;-65
2023/08/12 16:52:52;;;;;;;6.43;2.00;;;29.80;99.90;;;;;;8324596;28;20241;-66
2023/08/12 16:56:53;;;;;;;3.63;2.15;;;30.00;99.90;;;;;;8309964;28;20224;-67
2023/08/12 17:00:54;;;;;;;4.38;2.42;;;29.80;99.90;;;;;;8320333;28;20224;-66
2023/08/12 17:04:54;;;;;;;4.60;2.05;;;29.80;99.90;;;;;;8317055;28;20213;-65
2023/08/12 17:08:55;;;;;;;2.67;1.90;;;29.70;99.90;;;;;;8311482;28;20210;-66
2023/08/12 17:12:56;;;;;;;2.13;1.75;;;29.60;99.90;;;;;;8317863;28;20205;-65
2023/08/12 17:16:57;;;;;;;4.03;1.77;;;29.40;99.90;;;;;;8317433;28;20197;-65
2023/08/12 17:20:59;;;;;;;2.45;1.83;;;29.10;99.90;;;;;;8315316;28;20185;-65
2023/08/12 17:25:04;;;;;;;2.05;1.60;;;28.70;99.90;;;;;;8313996;28;20214;-65
2023/08/12 17:29:05;;;;;;;2.17;1.88;;;28.50;99.90;;;;;;8316925;28;20229;-66
2023/08/12 17:33:06;;;;;;;1.95;1.75;;;28.30;99.90;;;;;;8316285;28;20189;-66
2023/08/12 17:37:07;;;;;;;2.33;1.80;;;28.10;99.90;;;;;;8313934;28;20202;-65
2023/08/12 17:41:07;;;;;;;3.08;1.63;;;27.80;99.90;;;;;;8321133;28;20196;-65
2023/08/12 17:45:08;;;;;;;1.60;1.50;;;27.50;99.90;;;;;;8316336;28;20217;-64
2023/08/12 17:49:09;;;;;;;2.10;1.90;;;27.20;99.90;;;;;;8318950;28;20190;-64
2023/08/12 17:53:10;;;;;;;1.90;1.80;;;26.90;99.90;;;;;;8316445;28;20194;-66
2023/08/12 17:57:11;;;;;;;2.08;1.88;;;26.70;99.90;;;;;;8308356;28;20273;-66
2023/08/12 18:01:12;;;;;;;4.63;2.17;;;26.50;99.90;;;;;;8315763;28;20210;-65
2023/08/12 18:05:13;;;;;;;2.03;1.83;;;26.20;99.90;;;;;;8312687;28;20371;-65
2023/08/12 18:09:13;;;;;;;3.92;2.42;;;25.90;99.90;;;;;;8323529;28;20201;-64
2023/08/12 18:13:14;;;;;;;2.83;2.22;;;25.60;99.90;;;;;;8317989;28;20614;-64
2023/08/12 18:17:15;;;;;;;2.90;2.25;;;25.30;99.90;;;;;;8316957;28;20243;-65
2023/08/12 18:21:16;;;;;;;6.25;2.13;;;25.00;99.90;;;;;;8317712;28;20197;-64
2023/08/12 18:25:16;;;;;;;2.90;2.40;;;24.80;99.90;;;;;;8316570;28;20306;-64
2023/08/12 18:29:17;;;;;;;4.43;2.40;;;24.60;1.00;;;;;;8314474;28;20217;-64
2023/08/12 18:33:18;;;;;;;2.20;2.00;;;24.20;1.00;;;;;;8321659;28;20308;-64
2023/08/12 18:37:19;;;;;;;2.50;2.30;;;23.90;1.00;;;;;;8315762;28;20591;-64
2023/08/12 18:41:20;;;;;;;3.47;2.47;;;23.60;1.00;;;;;;8316489;28;20200;-65
2023/08/12 18:45:21;;;;;;;3.47;2.77;;;23.40;1.00;;;;;;8322984;28;20206;-64
2023/08/12 18:49:21;;;;;;;2.40;1.97;;;23.20;1.00;;;;;;8318438;28;20189;-65
2023/08/12 18:53:22;;;;;;;2.67;2.37;;;22.90;1.00;;;;;;8336581;28;20190;-65
2023/08/12 18:57:24;;;;;;;2.60;2.40;;;22.70;1.00;;;;;;8311809;28;20190;-64
2023/08/12 19:01:24;;;;;;;3.53;2.40;;;22.60;1.00;;;;;;8321930;28;20182;-64
2023/08/12 19:05:26;;;;;;;2.63;2.40;;;22.40;1.00;;;;;;8317184;28;20221;-65
2023/08/12 19:09:27;;;;;;;4.23;3.10;;;22.30;1.00;;;;;;8303210;28;20198;-65
2023/08/12 19:13:28;;;;;;;3.37;2.90;;;22.20;1.00;;;;;;8322636;28;20190;-63
2023/08/12 19:17:28;;;;;;;3.33;2.70;;;22.10;1.00;;;;;;8321104;28;20189;-63
2023/08/12 19:21:29;;;;;;;3.40;2.70;;;22.10;1.00;;;;;;8320400;28;20232;-63
2023/08/12 19:25:30;;;;;;;2.97;2.40;;;22.00;1.00;;;;;;8321692;28;20209;-63
2023/08/12 19:29:31;;;;;;;2.70;2.50;;;22.00;1.00;;;;;;8315390;28;20325;-62
2023/08/12 19:33:32;;;;;;;2.80;2.60;;;22.00;1.00;;;;;;8316322;28;20447;-64
2023/08/12 19:37:33;;;;;;;3.03;2.73;;;22.00;1.00;;;;;;8306115;28;20225;-64
2023/08/12 19:41:34;;;;;;;3.60;2.90;;;22.00;1.00;;;;;;8321652;28;20219;-62
2023/08/12 19:45:35;;;;;;;3.43;3.03;;;22.00;1.00;;;;;;8315799;28;20210;-63
2023/08/12 19:49:36;;;;;;;3.07;2.77;;;22.00;1.00;;;;;;8314833;28;20182;-62
2023/08/12 19:53:37;;;;;;;5.20;3.03;;;21.90;1.00;;;;;;8306324;28;20218;-63
2023/08/12 19:57:39;;;;;;;5.17;2.80;;;21.90;1.00;;;;;;8312663;28;20221;-64
2023/08/12 20:01:40;;;;;;;3.70;3.10;;;21.80;1.00;;;;;;8324783;28;20220;-62
2023/08/12 20:05:40;;;;;;;3.30;2.93;;;21.70;1.00;;;;;;8324258;28;20217;-63
2023/08/12 20:09:41;;;;;;;3.50;3.20;;;21.60;1.00;;;;;;8326209;28;20202;-63
2023/08/12 20:13:42;;;;;;;3.60;3.20;;;21.50;1.00;;;;;;8327397;28;20198;-61
2023/08/12 20:17:43;;;;;;;3.60;3.20;;;21.50;1.00;;;;;;8320734;28;20900;-62
2023/08/12 20:21:44;;;;;;;4.13;2.97;;;21.30;1.00;;;;;;8325074;28;20213;-64
2023/08/12 20:25:45;;;;;;;3.70;2.83;;;21.20;1.00;;;;;;8327086;28;20218;-63
2023/08/12 20:29:46;;;;;;;4.00;3.60;;;21.10;1.00;;;;;;8333231;28;20225;-65
2023/08/12 20:33:47;;;;;;;3.93;3.17;;;21.00;1.00;;;;;;8329052;28;20201;-65
2023/08/12 20:37:47;;;;;;;4.23;3.13;;;20.90;1.00;;;;;;8320752;28;20200;-66
2023/08/12 20:41:48;;;;;;;3.70;3.37;;;20.80;1.00;;;;;;8324174;28;20200;-66
2023/08/12 20:45:49;;;;;;;4.63;3.47;;;20.60;1.00;;;;;;8329526;28;20222;-67
2023/08/12 20:49:49;;;;;;;4.43;3.10;;;20.60;1.00;;;;;;8331583;28;20300;-65
2023/08/12 20:53:50;;;;;;;3.63;3.20;;;20.80;1.00;;;;;;8328367;28;20277;-65
2023/08/12 20:57:51;;;;;;;4.00;3.20;;;20.90;1.00;;;;;;8329673;28;20573;-65